Aviation Digital Data Service (ADDS)

Output produced by METARs form (2121 UTC 19 November 2017)
found at http://aviationweather.gov/adds/metars/
 
KJAX 191720Z 1918/2018 31012G18KT P6SM FEW025 SCT250 
     FM192300 35005KT P6SM SKC 
     FM201500 05012KT P6SM SCT030